Time;durP1;ratioP1;P1;durP2;ratioP2;P2;SDS_P1;SDS_P2;PMS_P1;PMS_P2;Temp;Humidity;BMP_temperature;BMP_pressure;BME280_temperature;BME280_humidity;BME280_pressure;Samples;Min_cycle;Max_cycle;Signal;HPM_P1;HPM_P2
2022/10/26 00:00:42;;;;;;;4.47;2.22;;;;;;;;;;5026767;28;20156;-73
2022/10/26 00:03:07;;;;;;;0.90;0.85;;;;;;;;;;5027182;28;20037;-73
2022/10/26 00:05:33;;;;;;;3.22;1.00;;;;;;;;;;5026947;28;20030;-73
2022/10/26 00:07:59;;;;;;;5.07;1.30;;;;;;;;;;5026021;28;20068;-72
2022/10/26 00:10:25;;;;;;;2.70;1.20;;;;;;;;;;5027671;28;20067;-73
2022/10/26 00:12:51;;;;;;;2.58;0.82;;;;;;;;;;5027001;28;20655;-73
2022/10/26 00:15:20;;;;;;;5.38;1.30;;;;;;;;;;5045213;28;20477;-73
2022/10/26 00:17:46;;;;;;;2.70;1.00;;;;;;;;;;5044499;28;20033;-72
2022/10/26 00:20:12;;;;;;;1.20;0.75;;;;;;;;;;5046941;28;20040;-73
2022/10/26 00:22:38;;;;;;;2.90;1.15;;;;;;;;;;5047261;28;20383;-72
2022/10/26 00:25:05;;;;;;;3.15;1.13;;;;;;;;;;5046770;28;20048;-73
2022/10/26 00:27:33;;;;;;;3.60;1.38;;;;;;;;;;5045448;28;20086;-73
2022/10/26 00:29:58;;;;;;;3.30;1.33;;;;;;;;;;5045406;28;20064;-72
2022/10/26 00:32:24;;;;;;;2.88;1.15;;;;;;;;;;5041671;28;20056;-72
2022/10/26 00:34:49;;;;;;;3.53;1.27;;;;;;;;;;5043211;28;20032;-72
2022/10/26 00:37:14;;;;;;;1.95;1.10;;;;;;;;;;5047023;28;20052;-73
2022/10/26 00:39:40;;;;;;;2.92;1.10;;;;;;;;;;5041355;28;20037;-73
2022/10/26 00:42:05;;;;;;;1.50;1.00;;;;;;;;;;5026195;28;20040;-73
2022/10/26 00:44:42;;;;;;;2.15;1.08;;;;;;;;;;5026083;28;20048;-73
2022/10/26 00:47:15;;;;;;;2.25;1.33;;;;;;;;;;5026529;28;20106;-73
2022/10/26 00:49:41;;;;;;;1.38;0.93;;;;;;;;;;5044019;28;20128;-72
2022/10/26 00:52:07;;;;;;;2.08;1.20;;;;;;;;;;5046988;28;20025;-73
2022/10/26 00:54:33;;;;;;;1.10;1.00;;;;;;;;;;5040189;28;20056;-73
2022/10/26 00:56:59;;;;;;;3.63;1.10;;;;;;;;;;5046303;28;20068;-73
2022/10/26 00:59:24;;;;;;;1.70;1.00;;;;;;;;;;5044571;28;20029;-72
2022/10/26 01:01:50;;;;;;;1.88;1.10;;;;;;;;;;5046291;28;20032;-73
2022/10/26 01:04:17;;;;;;;2.03;1.20;;;;;;;;;;5046501;28;20048;-73
2022/10/26 01:06:43;;;;;;;3.58;1.42;;;;;;;;;;5045237;28;20083;-73
2022/10/26 01:09:10;;;;;;;3.75;1.27;;;;;;;;;;5023780;28;20036;-73
2022/10/26 01:11:36;;;;;;;5.10;1.30;;;;;;;;;;5025946;28;20125;-73
2022/10/26 01:14:04;;;;;;;4.13;1.33;;;;;;;;;;5026189;28;20116;-73
2022/10/26 01:16:54;;;;;;;3.03;1.20;;;;;;;;;;5025413;28;20041;-73
2022/10/26 01:19:22;;;;;;;2.88;1.40;;;;;;;;;;5026796;28;20038;-73
2022/10/26 01:21:51;;;;;;;3.53;1.60;;;;;;;;;;5026157;28;20041;-73
2022/10/26 01:24:35;;;;;;;2.75;1.10;;;;;;;;;;5024266;28;20044;-73
2022/10/26 01:27:19;;;;;;;1.33;1.00;;;;;;;;;;5026408;28;20025;-73
2022/10/26 01:29:54;;;;;;;3.33;0.95;;;;;;;;;;5026751;28;20036;-73
2022/10/26 01:32:31;;;;;;;4.15;1.20;;;;;;;;;;5029832;28;20029;-73
2022/10/26 01:35:06;;;;;;;3.65;1.10;;;;;;;;;;5029375;28;20112;-73
2022/10/26 01:37:37;;;;;;;3.05;1.35;;;;;;;;;;5030007;28;20014;-73
2022/10/26 01:40:15;;;;;;;5.55;1.00;;;;;;;;;;5048356;28;20083;-73
2022/10/26 01:42:47;;;;;;;4.57;1.25;;;;;;;;;;5049374;28;20044;-73
2022/10/26 01:45:13;;;;;;;2.75;0.88;;;;;;;;;;5049386;28;20039;-73
2022/10/26 01:47:40;;;;;;;3.17;1.10;;;;;;;;;;5049983;28;20048;-73
2022/10/26 01:50:07;;;;;;;2.10;1.42;;;;;;;;;;5038952;28;20112;-73
2022/10/26 01:52:32;;;;;;;3.47;1.35;;;;;;;;;;5049885;28;20020;-73
2022/10/26 01:55:21;;;;;;;2.92;1.10;;;;;;;;;;5049543;28;20425;-73
2022/10/26 01:57:50;;;;;;;2.65;1.10;;;;;;;;;;5043206;28;20034;-72
2022/10/26 02:00:15;;;;;;;1.75;1.10;;;;;;;;;;5029309;28;20116;-73
2022/10/26 02:02:51;;;;;;;1.20;0.95;;;;;;;;;;5028309;28;20128;-73
2022/10/26 02:05:19;;;;;;;2.55;1.10;;;;;;;;;;5029130;28;20029;-73
2022/10/26 02:08:03;;;;;;;1.58;1.05;;;;;;;;;;5027986;28;20446;-72
2022/10/26 02:10:41;;;;;;;3.38;1.08;;;;;;;;;;5028367;28;20017;-73
2022/10/26 02:13:18;;;;;;;2.83;1.02;;;;;;;;;;5031916;28;20034;-73
2022/10/26 02:15:49;;;;;;;1.65;1.17;;;;;;;;;;5028969;28;20042;-73
2022/10/26 02:18:24;;;;;;;3.90;1.30;;;;;;;;;;5028964;28;20040;-73
2022/10/26 02:20:53;;;;;;;4.40;1.30;;;;;;;;;;5028859;28;20037;-73
2022/10/26 02:23:20;;;;;;;3.13;1.02;;;;;;;;;;5028722;28;20037;-72
2022/10/26 02:25:54;;;;;;;3.72;1.35;;;;;;;;;;5044502;28;20009;-72
2022/10/26 02:28:24;;;;;;;1.42;1.13;;;;;;;;;;5049307;28;20508;-73
2022/10/26 02:30:52;;;;;;;2.58;1.30;;;;;;;;;;5048639;28;20028;-73
2022/10/26 02:33:20;;;;;;;5.35;1.13;;;;;;;;;;5048639;28;20036;-73
2022/10/26 02:35:49;;;;;;;3.95;1.30;;;;;;;;;;5046467;28;20029;-73
2022/10/26 02:38:18;;;;;;;2.47;1.13;;;;;;;;;;5038486;28;20091;-73
2022/10/26 02:40:47;;;;;;;3.10;1.38;;;;;;;;;;5041874;28;20017;-72
2022/10/26 02:43:15;;;;;;;2.85;1.30;;;;;;;;;;5047848;28;20075;-73
2022/10/26 02:45:45;;;;;;;2.95;1.30;;;;;;;;;;5047966;28;20124;-73
2022/10/26 02:48:11;;;;;;;7.57;1.25;;;;;;;;;;5048235;28;20384;-73
2022/10/26 02:51:07;;;;;;;4.28;1.50;;;;;;;;;;5046635;28;20094;-73
2022/10/26 02:53:44;;;;;;;8.07;1.30;;;;;;;;;;5048315;28;20025;-73
2022/10/26 02:56:17;;;;;;;5.28;1.40;;;;;;;;;;5048254;28;20103;-73
2022/10/26 02:58:47;;;;;;;1.90;1.20;;;;;;;;;;5044342;28;20025;-72
2022/10/26 03:01:13;;;;;;;1.80;1.63;;;;;;;;;;5048686;28;20540;-73
2022/10/26 03:03:38;;;;;;;2.63;1.50;;;;;;;;;;5048231;28;20048;-73
2022/10/26 03:06:04;;;;;;;1.92;1.15;;;;;;;;;;5048066;28;20112;-73
2022/10/26 03:08:29;;;;;;;4.07;1.30;;;;;;;;;;5046531;28;20028;-73
2022/10/26 03:10:55;;;;;;;5.97;1.30;;;;;;;;;;5048478;28;20106;-73
2022/10/26 03:13:20;;;;;;;3.60;1.30;;;;;;;;;;5048418;28;20053;-73
2022/10/26 03:15:45;;;;;;;4.72;1.33;;;;;;;;;;5046336;28;20059;-73
2022/10/26 03:18:11;;;;;;;1.63;1.20;;;;;;;;;;5047996;28;20049;-73
2022/10/26 03:20:36;;;;;;;4.43;1.40;;;;;;;;;;5048059;28;20540;-73
2022/10/26 03:23:01;;;;;;;2.08;1.23;;;;;;;;;;5046416;28;20044;-73
2022/10/26 03:25:27;;;;;;;2.60;1.20;;;;;;;;;;5048049;28;20021;-73
2022/10/26 03:27:58;;;;;;;1.90;1.10;;;;;;;;;;5047943;28;20086;-73
2022/10/26 03:30:24;;;;;;;4.65;1.20;;;;;;;;;;5047722;28;20059;-73
2022/10/26 03:32:49;;;;;;;6.38;1.17;;;;;;;;;;5046074;28;20457;-73
2022/10/26 03:35:14;;;;;;;1.95;1.30;;;;;;;;;;5047747;28;20033;-73
2022/10/26 03:37:40;;;;;;;2.30;1.38;;;;;;;;;;5045630;28;20031;-72
2022/10/26 03:40:06;;;;;;;3.22;1.20;;;;;;;;;;5046990;28;20433;-72
2022/10/26 03:42:37;;;;;;;3.63;1.50;;;;;;;;;;5031798;28;20060;-73
2022/10/26 03:45:03;;;;;;;2.28;1.55;;;;;;;;;;5027343;28;20568;-73
2022/10/26 03:47:29;;;;;;;3.28;1.50;;;;;;;;;;5028724;28;20029;-73
2022/10/26 03:49:54;;;;;;;3.60;1.65;;;;;;;;;;5046827;28;20124;-73
2022/10/26 03:52:19;;;;;;;3.60;1.40;;;;;;;;;;5046978;28;20031;-73
2022/10/26 03:54:45;;;;;;;4.22;2.15;;;;;;;;;;5047310;28;20033;-73
2022/10/26 03:57:10;;;;;;;3.95;1.52;;;;;;;;;;5047172;28;20032;-73
2022/10/26 03:59:36;;;;;;;3.85;1.58;;;;;;;;;;5045529;28;20039;-72
2022/10/26 04:02:01;;;;;;;2.15;1.30;;;;;;;;;;5046854;28;20500;-73
2022/10/26 04:04:26;;;;;;;9.23;1.55;;;;;;;;;;5047259;28;20023;-73
2022/10/26 04:06:52;;;;;;;4.07;1.63;;;;;;;;;;5047020;28;20054;-73
2022/10/26 04:09:17;;;;;;;3.33;1.10;;;;;;;;;;5045514;28;20427;-72
2022/10/26 04:11:42;;;;;;;3.70;1.83;;;;;;;;;;5045206;28;20457;-73
2022/10/26 04:14:08;;;;;;;2.85;1.50;;;;;;;;;;5046800;28;20028;-73
2022/10/26 04:16:33;;;;;;;3.28;1.75;;;;;;;;;;5039996;28;20018;-72
2022/10/26 04:18:58;;;;;;;5.40;1.88;;;;;;;;;;5046396;28;20068;-73
2022/10/26 04:21:24;;;;;;;3.55;1.60;;;;;;;;;;5045441;28;20040;-73
2022/10/26 04:23:49;;;;;;;3.17;1.50;;;;;;;;;;5046568;28;20040;-73
2022/10/26 04:26:14;;;;;;;3.45;1.58;;;;;;;;;;5046485;28;20033;-73
2022/10/26 04:28:39;;;;;;;6.85;1.55;;;;;;;;;;5042997;28;20715;-72
2022/10/26 04:31:05;;;;;;;3.03;1.42;;;;;;;;;;5025864;28;20029;-73
2022/10/26 04:33:30;;;;;;;2.22;1.40;;;;;;;;;;5041905;28;20112;-74
2022/10/26 04:36:02;;;;;;;2.92;1.70;;;;;;;;;;5026482;28;20048;-73
2022/10/26 04:38:27;;;;;;;2.42;1.52;;;;;;;;;;5026401;28;20030;-74
2022/10/26 04:40:52;;;;;;;3.92;1.55;;;;;;;;;;5046622;28;20074;-72
2022/10/26 04:43:17;;;;;;;5.03;1.55;;;;;;;;;;5045493;28;20025;-73
2022/10/26 04:45:43;;;;;;;4.15;1.73;;;;;;;;;;5046328;28;20068;-73
2022/10/26 04:48:12;;;;;;;3.90;2.05;;;;;;;;;;5046213;28;20057;-72
2022/10/26 04:50:39;;;;;;;4.55;2.13;;;;;;;;;;5044762;28;20508;-73
2022/10/26 04:53:08;;;;;;;4.88;2.13;;;;;;;;;;5046654;28;20462;-73
2022/10/26 04:55:34;;;;;;;2.90;1.70;;;;;;;;;;5039548;28;20487;-73
2022/10/26 04:58:00;;;;;;;3.92;1.63;;;;;;;;;;5043392;28;20422;-73
2022/10/26 05:00:25;;;;;;;2.45;1.50;;;;;;;;;;5046505;28;20048;-73
2022/10/26 05:02:51;;;;;;;6.55;1.92;;;;;;;;;;5046651;28;20039;-73
2022/10/26 05:05:16;;;;;;;2.90;1.63;;;;;;;;;;5041593;28;20052;-72
2022/10/26 05:07:42;;;;;;;7.13;1.55;;;;;;;;;;5039081;28;20110;-72
2022/10/26 05:10:08;;;;;;;7.15;1.92;;;;;;;;;;5040991;28;20048;-73
2022/10/26 05:12:33;;;;;;;4.85;1.75;;;;;;;;;;5048944;28;20025;-73
2022/10/26 05:14:58;;;;;;;9.48;1.70;;;;;;;;;;5048867;28;20597;-73
2022/10/26 05:17:25;;;;;;;2.35;1.35;;;;;;;;;;5047926;28;20712;-73
2022/10/26 05:19:54;;;;;;;6.65;2.03;;;;;;;;;;5050305;28;20032;-73
2022/10/26 05:22:20;;;;;;;2.80;1.38;;;;;;;;;;5049733;28;20032;-73
2022/10/26 05:24:46;;;;;;;4.47;1.90;;;;;;;;;;5046548;28;20071;-72
2022/10/26 05:27:11;;;;;;;4.53;1.90;;;;;;;;;;5049825;28;20037;-73
2022/10/26 05:29:36;;;;;;;4.38;1.67;;;;;;;;;;5049651;28;20428;-72
2022/10/26 05:32:01;;;;;;;5.30;1.88;;;;;;;;;;5049915;28;20036;-73
2022/10/26 05:34:27;;;;;;;2.72;1.85;;;;;;;;;;5046687;28;20017;-73
2022/10/26 05:36:53;;;;;;;3.80;1.92;;;;;;;;;;5038252;28;20060;-72
2022/10/26 05:39:18;;;;;;;5.50;1.73;;;;;;;;;;5036165;28;20040;-73
2022/10/26 05:41:44;;;;;;;2.75;1.33;;;;;;;;;;5049357;28;20095;-73
2022/10/26 05:44:09;;;;;;;3.38;1.80;;;;;;;;;;5046480;28;20443;-72
2022/10/26 05:46:34;;;;;;;2.75;1.55;;;;;;;;;;5049158;28;20019;-73
2022/10/26 05:48:59;;;;;;;5.00;1.88;;;;;;;;;;5049316;28;20094;-73
2022/10/26 05:51:25;;;;;;;5.30;2.20;;;;;;;;;;5053996;28;20103;-73
2022/10/26 05:53:53;;;;;;;6.30;1.65;;;;;;;;;;5037070;28;20048;-72
2022/10/26 05:56:26;;;;;;;4.43;1.88;;;;;;;;;;5028274;28;20125;-73
2022/10/26 05:58:51;;;;;;;4.68;1.98;;;;;;;;;;5029607;28;20457;-72
2022/10/26 06:01:31;;;;;;;2.97;1.70;;;;;;;;;;5029500;28;20021;-73
2022/10/26 06:04:09;;;;;;;2.80;1.58;;;;;;;;;;5027261;28;20099;-73
2022/10/26 06:06:46;;;;;;;2.75;1.65;;;;;;;;;;5029298;28;20627;-73
2022/10/26 06:09:13;;;;;;;4.10;1.83;;;;;;;;;;5039129;28;20044;-73
2022/10/26 06:11:39;;;;;;;2.88;1.75;;;;;;;;;;5042811;28;20748;-72
2022/10/26 06:14:06;;;;;;;5.57;1.80;;;;;;;;;;5026869;28;20033;-73
2022/10/26 06:16:49;;;;;;;5.68;2.00;;;;;;;;;;5027579;28;20030;-73
2022/10/26 06:19:32;;;;;;;4.35;1.70;;;;;;;;;;5028825;28;20037;-73
2022/10/26 06:22:15;;;;;;;3.42;2.10;;;;;;;;;;5027239;28;20069;-73
2022/10/26 06:24:44;;;;;;;;;;;;;;;;;;5029109;28;20478;-73
2022/10/26 06:27:23;;;;;;;5.85;1.85;;;;;;;;;;5033368;28;19947;-72
2022/10/26 06:29:53;;;;;;;5.35;2.45;;;;;;;;;;5045969;28;20124;-73
2022/10/26 06:32:21;;;;;;;3.25;1.73;;;;;;;;;;5046943;28;20131;-73
2022/10/26 06:34:50;;;;;;;3.90;2.00;;;;;;;;;;5042559;28;20090;-72
2022/10/26 06:37:16;;;;;;;5.90;1.92;;;;;;;;;;5048006;28;20600;-72
2022/10/26 06:39:45;;;;;;;3.67;2.13;;;;;;;;;;5048211;28;20033;-73
2022/10/26 06:42:11;;;;;;;9.38;2.17;;;;;;;;;;5046223;28;20033;-73
2022/10/26 06:44:37;;;;;;;5.57;1.83;;;;;;;;;;5038996;28;20069;-72
2022/10/26 06:47:06;;;;;;;4.28;1.90;;;;;;;;;;5040453;28;20040;-73
2022/10/26 06:49:54;;;;;;;4.55;1.88;;;;;;;;;;5042317;28;20442;-73
2022/10/26 06:52:26;;;;;;;5.40;2.03;;;;;;;;;;5042461;28;20052;-73
2022/10/26 06:54:54;;;;;;;4.32;2.38;;;;;;;;;;5038371;28;20026;-72
2022/10/26 06:57:22;;;;;;;4.18;2.17;;;;;;;;;;5044843;28;20067;-72
2022/10/26 06:59:50;;;;;;;3.70;1.98;;;;;;;;;;5043084;28;20179;-73
2022/10/26 07:02:16;;;;;;;6.10;1.90;;;;;;;;;;5034392;28;20033;-72
2022/10/26 07:04:42;;;;;;;6.05;2.38;;;;;;;;;;5028309;28;20075;-72
2022/10/26 07:07:10;;;;;;;6.78;2.50;;;;;;;;;;5028467;28;20063;-73
2022/10/26 07:09:35;;;;;;;7.60;2.20;;;;;;;;;;5030623;28;20029;-74
2022/10/26 07:12:01;;;;;;;5.18;2.55;;;;;;;;;;5043172;28;20458;-73
2022/10/26 07:14:26;;;;;;;4.75;2.20;;;;;;;;;;5067360;28;20036;-73
2022/10/26 07:16:53;;;;;;;3.72;2.13;;;;;;;;;;5066670;28;20021;-73
2022/10/26 07:19:18;;;;;;;9.10;2.35;;;;;;;;;;5068824;28;20115;-73
2022/10/26 07:21:44;;;;;;;5.38;2.17;;;;;;;;;;5067610;28;20120;-72
2022/10/26 07:24:09;;;;;;;6.82;2.40;;;;;;;;;;5032984;28;20542;-73
2022/10/26 07:26:34;;;;;;;4.65;2.15;;;;;;;;;;5042080;28;20025;-73
2022/10/26 07:29:00;;;;;;;5.05;2.55;;;;;;;;;;5045224;28;20393;-73
2022/10/26 07:31:25;;;;;;;6.28;2.38;;;;;;;;;;5046286;28;20021;-71
2022/10/26 07:33:53;;;;;;;3.53;2.10;;;;;;;;;;5041499;28;20036;-76
2022/10/26 07:36:18;;;;;;;2.80;1.73;;;;;;;;;;5028253;28;20123;-75
2022/10/26 07:38:44;;;;;;;4.80;2.17;;;;;;;;;;5048362;28;20737;-77
2022/10/26 07:41:09;;;;;;;9.52;2.33;;;;;;;;;;5051549;28;20082;-71
2022/10/26 07:43:34;;;;;;;4.28;2.13;;;;;;;;;;5067937;28;20040;-76
2022/10/26 07:46:00;;;;;;;5.95;2.20;;;;;;;;;;5068406;28;20073;-76
2022/10/26 07:48:25;;;;;;;7.63;2.13;;;;;;;;;;5058708;28;20029;-80
2022/10/26 07:50:50;;;;;;;4.45;2.05;;;;;;;;;;5047153;28;20041;-77
2022/10/26 07:53:16;;;;;;;8.55;2.22;;;;;;;;;;5031664;28;20554;-76
2022/10/26 07:55:41;;;;;;;5.07;1.80;;;;;;;;;;5028003;28;20029;-76
2022/10/26 07:58:06;;;;;;;4.68;1.90;;;;;;;;;;5046830;28;20025;-71
2022/10/26 08:00:32;;;;;;;3.75;2.00;;;;;;;;;;5051681;28;20529;-72
2022/10/26 08:02:57;;;;;;;5.50;2.30;;;;;;;;;;5046126;28;20128;-72
2022/10/26 08:05:23;;;;;;;6.07;1.92;;;;;;;;;;5041065;28;20052;-72
2022/10/26 08:07:48;;;;;;;5.60;1.90;;;;;;;;;;5043160;28;20021;-72
2022/10/26 08:10:14;;;;;;;5.72;1.90;;;;;;;;;;5044345;28;20027;-71
2022/10/26 08:12:41;;;;;;;4.32;2.05;;;;;;;;;;5047547;28;20425;-74
2022/10/26 08:15:07;;;;;;;4.53;1.80;;;;;;;;;;5037045;28;20048;-67
2022/10/26 08:17:33;;;;;;;3.40;1.67;;;;;;;;;;5030661;28;20041;-70
2022/10/26 08:19:58;;;;;;;4.50;1.75;;;;;;;;;;5039267;28;20033;-71
2022/10/26 08:22:24;;;;;;;5.13;1.92;;;;;;;;;;5042031;28;20617;-73
2022/10/26 08:24:49;;;;;;;9.75;1.80;;;;;;;;;;5046512;28;20471;-72
2022/10/26 08:27:15;;;;;;;3.03;1.85;;;;;;;;;;5047190;28;20029;-67
2022/10/26 08:29:41;;;;;;;5.68;1.98;;;;;;;;;;5047222;28;20040;-73
2022/10/26 08:32:06;;;;;;;5.07;2.03;;;;;;;;;;5046414;28;20518;-72
2022/10/26 08:34:31;;;;;;;8.18;1.70;;;;;;;;;;5047111;28;20580;-67
2022/10/26 08:36:57;;;;;;;4.78;1.88;;;;;;;;;;5047642;28;20532;-76
2022/10/26 08:39:23;;;;;;;4.18;2.00;;;;;;;;;;5044882;28;20037;-81
2022/10/26 08:41:56;;;;;;;7.35;1.95;;;;;;;;;;5045856;28;20043;-81
2022/10/26 08:44:28;;;;;;;4.90;1.60;;;;;;;;;;5046708;28;20033;-81
2022/10/26 08:47:04;;;;;;;4.70;2.03;;;;;;;;;;5047446;28;20021;-81
2022/10/26 08:49:47;;;;;;;3.63;1.83;;;;;;;;;;5038262;28;20451;-82
2022/10/26 08:52:19;;;;;;;6.60;2.25;;;;;;;;;;5046879;28;20029;-81
2022/10/26 08:54:51;;;;;;;4.93;1.80;;;;;;;;;;5046758;28;20029;-79
2022/10/26 08:57:37;;;;;;;3.47;1.85;;;;;;;;;;5039207;28;20096;-74
2022/10/26 09:00:10;;;;;;;5.53;2.10;;;;;;;;;;5046158;28;20032;-75
2022/10/26 09:02:36;;;;;;;6.00;2.25;;;;;;;;;;5046061;28;20057;-73
2022/10/26 09:05:04;;;;;;;3.10;1.45;;;;;;;;;;5046907;28;20110;-75
2022/10/26 09:07:42;;;;;;;2.83;1.58;;;;;;;;;;5045299;28;20029;-82
2022/10/26 09:10:28;;;;;;;8.77;1.67;;;;;;;;;;5045567;28;20037;-81
2022/10/26 09:13:02;;;;;;;2.60;1.80;;;;;;;;;;5046976;28;20619;-81
2022/10/26 09:15:51;;;;;;;5.53;1.80;;;;;;;;;;5046808;28;20033;-81
2022/10/26 09:18:29;;;;;;;3.72;1.88;;;;;;;;;;5046376;28;20037;-77
2022/10/26 09:21:31;;;;;;;5.10;2.13;;;;;;;;;;5045682;28;20064;-76
2022/10/26 09:24:24;;;;;;;5.18;1.90;;;;;;;;;;5044158;28;20036;-76
2022/10/26 09:26:58;;;;;;;4.30;1.70;;;;;;;;;;5045766;28;20087;-75
2022/10/26 09:29:30;;;;;;;6.25;2.20;;;;;;;;;;5046649;28;20464;-74
2022/10/26 09:31:58;;;;;;;4.32;1.77;;;;;;;;;;5044879;28;20051;-75
2022/10/26 09:34:41;;;;;;;2.83;1.77;;;;;;;;;;5028063;28;20197;-79
2022/10/26 09:37:28;;;;;;;2.23;1.47;;;;;;;;;;5034099;28;20037;-79
2022/10/26 09:40:07;;;;;;;4.18;1.58;;;;;;;;;;5037068;28;20282;-74
2022/10/26 09:42:51;;;;;;;3.33;1.35;;;;;;;;;;5046510;28;20882;-81
2022/10/26 09:45:23;;;;;;;5.57;1.88;;;;;;;;;;5046048;28;20529;-76
2022/10/26 09:47:51;;;;;;;3.33;1.73;;;;;;;;;;5045256;28;20116;-74
2022/10/26 09:50:30;;;;;;;3.05;1.70;;;;;;;;;;5047382;28;20094;-77
2022/10/26 09:52:55;;;;;;;3.72;1.55;;;;;;;;;;5050407;28;20033;-82
2022/10/26 09:55:21;;;;;;;6.30;2.15;;;;;;;;;;5049563;28;20036;-81
2022/10/26 09:57:50;;;;;;;5.40;1.77;;;;;;;;;;5046999;28;20120;-74
2022/10/26 10:00:18;;;;;;;3.33;1.45;;;;;;;;;;5049666;28;20052;-76
2022/10/26 10:02:48;;;;;;;2.67;1.70;;;;;;;;;;5048232;28;20043;-75
2022/10/26 10:05:34;;;;;;;2.55;1.38;;;;;;;;;;5048351;28;20033;-75
2022/10/26 10:08:28;;;;;;;3.38;1.75;;;;;;;;;;5049669;28;20453;-75
2022/10/26 10:11:00;;;;;;;2.83;1.33;;;;;;;;;;5043448;28;20094;-75
2022/10/26 10:13:29;;;;;;;4.07;1.70;;;;;;;;;;5050083;28;20032;-75
2022/10/26 10:16:09;;;;;;;4.18;1.67;;;;;;;;;;5066852;28;20580;-72
2022/10/26 10:18:35;;;;;;;5.90;1.83;;;;;;;;;;5039069;28;20069;-72
2022/10/26 10:21:01;;;;;;;2.78;1.25;;;;;;;;;;5042979;28;20425;-77
2022/10/26 10:23:48;;;;;;;5.28;2.00;;;;;;;;;;5047825;28;20025;-78
2022/10/26 10:26:13;;;;;;;2.42;1.52;;;;;;;;;;5040601;28;20060;-76
2022/10/26 10:28:41;;;;;;;4.22;1.70;;;;;;;;;;5033981;28;20082;-74
2022/10/26 10:31:27;;;;;;;4.95;1.92;;;;;;;;;;5035388;28;20554;-75
2022/10/26 10:33:53;;;;;;;5.65;1.80;;;;;;;;;;5036762;28;20045;-75
2022/10/26 10:36:21;;;;;;;3.25;1.50;;;;;;;;;;5032750;28;20029;-75
2022/10/26 10:38:49;;;;;;;3.83;1.45;;;;;;;;;;5029153;28;20037;-75
2022/10/26 10:41:16;;;;;;;4.25;1.40;;;;;;;;;;5048013;28;20040;-75
2022/10/26 10:43:44;;;;;;;3.83;1.58;;;;;;;;;;5047154;28;20051;-74
2022/10/26 10:46:17;;;;;;;3.95;1.27;;;;;;;;;;5040072;28;20045;-75
2022/10/26 10:48:47;;;;;;;3.83;1.52;;;;;;;;;;5047579;28;20066;-75
2022/10/26 10:51:18;;;;;;;2.85;1.60;;;;;;;;;;5046774;28;20125;-76
2022/10/26 10:53:50;;;;;;;2.00;1.30;;;;;;;;;;5046890;28;20055;-76
2022/10/26 10:56:31;;;;;;;5.60;1.42;;;;;;;;;;5047889;28;20131;-75
2022/10/26 10:59:11;;;;;;;5.63;1.70;;;;;;;;;;5048656;28;20871;-75
2022/10/26 11:01:49;;;;;;;3.97;1.80;;;;;;;;;;5047730;28;20036;-75
2022/10/26 11:04:20;;;;;;;4.88;1.50;;;;;;;;;;5047271;28;20049;-75
2022/10/26 11:06:47;;;;;;;5.55;1.55;;;;;;;;;;5048413;28;20422;-75
2022/10/26 11:09:18;;;;;;;3.97;1.35;;;;;;;;;;5033332;28;20041;-75
2022/10/26 11:11:59;;;;;;;6.00;1.60;;;;;;;;;;5028309;28;20039;-75
2022/10/26 11:14:31;;;;;;;2.05;1.35;;;;;;;;;;5027280;28;20041;-75
2022/10/26 11:17:18;;;;;;;3.95;1.42;;;;;;;;;;5033714;28;20037;-75
2022/10/26 11:19:54;;;;;;;3.25;1.30;;;;;;;;;;5027526;28;20410;-75
2022/10/26 11:22:39;;;;;;;5.88;1.80;;;;;;;;;;5029278;28;20018;-75
2022/10/26 11:25:15;;;;;;;5.63;1.60;;;;;;;;;;5027170;28;20167;-75
2022/10/26 11:27:50;;;;;;;5.35;1.90;;;;;;;;;;5038093;28;20036;-75
2022/10/26 11:30:21;;;;;;;4.90;1.67;;;;;;;;;;5044465;28;20049;-75
2022/10/26 11:32:56;;;;;;;5.20;1.40;;;;;;;;;;5047277;28;20086;-73
2022/10/26 11:35:39;;;;;;;4.13;1.65;;;;;;;;;;5047709;28;20037;-74
2022/10/26 11:38:26;;;;;;;2.63;1.30;;;;;;;;;;5047867;28;20043;-73
2022/10/26 11:41:00;;;;;;;3.13;1.48;;;;;;;;;;5039126;28;20071;-75
2022/10/26 11:43:35;;;;;;;2.55;1.40;;;;;;;;;;5037790;28;20399;-76
2022/10/26 11:46:07;;;;;;;2.80;1.50;;;;;;;;;;5037710;28;20041;-74
2022/10/26 11:48:51;;;;;;;3.50;1.27;;;;;;;;;;5038149;28;20057;-74
2022/10/26 11:52:01;;;;;;;5.93;1.60;;;;;;;;;;5035929;28;20037;-78
2022/10/26 11:54:44;;;;;;;4.00;1.52;;;;;;;;;;5036424;28;20071;-73
2022/10/26 11:57:11;;;;;;;6.35;1.13;;;;;;;;;;5041343;28;20032;-75
2022/10/26 11:59:42;;;;;;;5.80;1.50;;;;;;;;;;5032745;28;20037;-71
2022/10/26 12:02:18;;;;;;;3.25;1.30;;;;;;;;;;5047319;28;20032;-71
2022/10/26 12:04:56;;;;;;;3.70;1.40;;;;;;;;;;5047754;28;20021;-74
2022/10/26 12:07:45;;;;;;;5.90;1.85;;;;;;;;;;5048173;28;20067;-76
2022/10/26 12:10:25;;;;;;;2.22;1.10;;;;;;;;;;5045873;28;20136;-74
2022/10/26 12:12:59;;;;;;;4.43;1.23;;;;;;;;;;5035236;28;20041;-73
2022/10/26 12:15:45;;;;;;;5.95;1.80;;;;;;;;;;5029538;28;20049;-71
2022/10/26 12:18:25;;;;;;;3.63;1.20;;;;;;;;;;5040665;28;20116;-79
2022/10/26 12:21:01;;;;;;;4.18;1.23;;;;;;;;;;5047569;28;20135;-80
2022/10/26 12:23:34;;;;;;;8.73;1.55;;;;;;;;;;5047299;28;20033;-71
2022/10/26 12:26:27;;;;;;;5.13;1.70;;;;;;;;;;5046205;28;20047;-73
2022/10/26 12:29:24;;;;;;;5.27;1.20;;;;;;;;;;5046724;28;20120;-83
2022/10/26 12:31:50;;;;;;;2.13;1.20;;;;;;;;;;5037784;28;20947;-81
2022/10/26 12:34:23;;;;;;;3.05;1.20;;;;;;;;;;5046667;28;20028;-74
2022/10/26 12:36:54;;;;;;;2.25;1.15;;;;;;;;;;5045080;28;20111;-73
2022/10/26 12:39:29;;;;;;;3.15;1.02;;;;;;;;;;5045830;28;20502;-72
2022/10/26 12:42:04;;;;;;;7.40;1.45;;;;;;;;;;5047676;28;20044;-73
2022/10/26 12:44:33;;;;;;;6.38;1.10;;;;;;;;;;5043915;28;20130;-72
2022/10/26 12:46:58;;;;;;;3.08;1.17;;;;;;;;;;5046917;28;20062;-72
2022/10/26 12:50:17;;;;;;;3.85;1.23;;;;;;;;;;5050536;28;20025;-72
2022/10/26 12:52:55;;;;;;;1.80;1.00;;;;;;;;;;5045656;28;20048;-72
2022/10/26 12:55:40;;;;;;;4.90;1.02;;;;;;;;;;5046924;28;20029;-73
2022/10/26 12:58:24;;;;;;;3.75;1.10;;;;;;;;;;5026752;28;20091;-72
2022/10/26 13:00:59;;;;;;;3.05;1.27;;;;;;;;;;5034189;28;20124;-71
2022/10/26 13:03:34;;;;;;;2.05;1.13;;;;;;;;;;5038757;28;20038;-71
2022/10/26 13:06:21;;;;;;;2.42;0.90;;;;;;;;;;5042790;28;20052;-72
2022/10/26 13:08:49;;;;;;;4.97;1.35;;;;;;;;;;5046476;28;20052;-73
2022/10/26 13:11:18;;;;;;;3.17;1.00;;;;;;;;;;5044950;28;20040;-72
2022/10/26 13:13:51;;;;;;;6.35;1.17;;;;;;;;;;5042853;28;20029;-73
2022/10/26 13:16:16;;;;;;;2.53;1.13;;;;;;;;;;5044862;28;20024;-73
2022/10/26 13:18:47;;;;;;;4.43;1.10;;;;;;;;;;5045274;28;20110;-73
2022/10/26 13:21:15;;;;;;;7.82;1.25;;;;;;;;;;5044731;28;20026;-72
2022/10/26 13:23:57;;;;;;;4.30;1.55;;;;;;;;;;5043862;28;20036;-72
2022/10/26 13:26:24;;;;;;;4.97;1.92;;;;;;;;;;5045860;28;20025;-72
2022/10/26 13:28:51;;;;;;;4.05;1.52;;;;;;;;;;5049857;28;20020;-72
2022/10/26 13:31:38;;;;;;;4.05;1.65;;;;;;;;;;5045461;28;20033;-71
2022/10/26 13:34:16;;;;;;;2.13;1.20;;;;;;;;;;5040534;28;20114;-72
2022/10/26 13:36:44;;;;;;;10.30;1.67;;;;;;;;;;5029756;28;20034;-72
2022/10/26 13:39:17;;;;;;;2.58;1.08;;;;;;;;;;5035580;28;20126;-72
2022/10/26 13:41:45;;;;;;;4.32;1.58;;;;;;;;;;5048393;28;20111;-73
2022/10/26 13:44:24;;;;;;;5.35;1.70;;;;;;;;;;5049050;28;20098;-72
2022/10/26 13:46:54;;;;;;;3.08;1.00;;;;;;;;;;5049424;28;20102;-72
2022/10/26 13:49:26;;;;;;;2.22;1.10;;;;;;;;;;5037818;28;20071;-72
2022/10/26 13:51:52;;;;;;;6.78;1.92;;;;;;;;;;5046165;28;20538;-73
2022/10/26 13:54:27;;;;;;;1.90;1.08;;;;;;;;;;5033164;28;20053;-72
2022/10/26 13:57:15;;;;;;;3.75;1.20;;;;;;;;;;5046527;28;20045;-72
2022/10/26 13:59:43;;;;;;;3.72;0.80;;;;;;;;;;5050344;28;20068;-73
2022/10/26 14:02:26;;;;;;;3.40;1.40;;;;;;;;;;5048859;28;20029;-73
2022/10/26 14:04:58;;;;;;;3.78;1.15;;;;;;;;;;5047833;28;20036;-73
2022/10/26 14:07:28;;;;;;;3.03;0.93;;;;;;;;;;5048858;28;20021;-72
2022/10/26 14:09:57;;;;;;;7.80;1.10;;;;;;;;;;5048204;28;20573;-73
2022/10/26 14:12:24;;;;;;;2.35;0.88;;;;;;;;;;5026952;28;20036;-72
2022/10/26 14:14:51;;;;;;;6.28;1.00;;;;;;;;;;5026333;28;20020;-72
2022/10/26 14:17:23;;;;;;;3.50;1.00;;;;;;;;;;4989688;28;20591;-73
2022/10/26 14:19:49;;;;;;;4.47;0.90;;;;;;;;;;4980704;28;20582;-71
2022/10/26 14:22:26;;;;;;;7.93;1.10;;;;;;;;;;4984037;28;20060;-72
2022/10/26 14:24:57;;;;;;;4.05;1.15;;;;;;;;;;4985000;28;20051;-72
2022/10/26 14:27:38;;;;;;;4.00;1.25;;;;;;;;;;4984746;28;20082;-72
2022/10/26 14:30:20;;;;;;;2.85;1.00;;;;;;;;;;4977192;28;20037;-72
2022/10/26 14:32:45;;;;;;;1.73;0.98;;;;;;;;;;4985112;28;20025;-72
2022/10/26 14:35:14;;;;;;;2.45;1.00;;;;;;;;;;4997136;28;20137;-72
2022/10/26 14:37:52;;;;;;;2.90;1.00;;;;;;;;;;4981888;28;20106;-72
2022/10/26 14:40:20;;;;;;;1.60;0.93;;;;;;;;;;4985157;28;20047;-72
2022/10/26 14:42:53;;;;;;;2.90;1.50;;;;;;;;;;4984363;28;20041;-72
2022/10/26 14:45:24;;;;;;;4.63;1.00;;;;;;;;;;4981015;28;20056;-71
2022/10/26 14:47:49;;;;;;;3.50;1.20;;;;;;;;;;4965367;28;20677;-72
2022/10/26 14:50:20;;;;;;;2.42;0.95;;;;;;;;;;4985511;28;20465;-73
2022/10/26 14:52:58;;;;;;;8.73;1.30;;;;;;;;;;4991950;28;20083;-72
2022/10/26 14:55:24;;;;;;;2.35;1.00;;;;;;;;;;4991304;28;20120;-72
2022/10/26 14:57:52;;;;;;;2.05;1.10;;;;;;;;;;4986073;28;20060;-72
2022/10/26 15:00:23;;;;;;;3.33;1.10;;;;;;;;;;4988903;28;20041;-72
2022/10/26 15:02:51;;;;;;;4.57;2.65;;;;;;;;;;4984391;28;20068;-72
2022/10/26 15:05:22;;;;;;;3.60;1.15;;;;;;;;;;5002862;28;20459;-72